TimeEST,TemperatureF,Dew PointF,Humidity,Sea Level PressureIn,VisibilityMPH,Wind Direction,Wind SpeedMPH,Gust SpeedMPH,PrecipitationIn,Events,Conditions,WindDirDegrees,DateUTC
12:54 AM,59.0,55.0,87,30.04,10.0,South,8.1,-,N/A,,Scattered Clouds,190,2013-12-05 05:54:00
1:54 AM,57.0,55.0,93,30.02,10.0,South,4.6,-,N/A,,Overcast,170,2013-12-05 06:54:00
2:44 AM,57.2,55.4,94,30.07,4.0,SSE,4.6,-,0.00,Rain,Light Rain,150,2013-12-05 07:44:00
2:54 AM,57.0,55.9,96,30.02,5.0,SSE,4.6,-,0.00,Rain,Light Rain,150,2013-12-05 07:54:00
3:13 AM,57.2,55.4,94,30.06,2.5,SE,4.6,-,0.01,Rain,Light Rain,140,2013-12-05 08:13:00
3:23 AM,57.2,55.4,94,30.06,4.0,SSE,3.5,-,0.01,Rain,Light Rain,160,2013-12-05 08:23:00
3:54 AM,57.0,55.9,96,30.02,3.0,SSE,3.5,-,0.01,,Overcast,160,2013-12-05 08:54:00
4:01 AM,57.2,55.4,94,30.06,2.5,Calm,Calm,-,N/A,,Overcast,0,2013-12-05 09:01:00
4:09 AM,57.2,55.4,94,30.06,3.0,Calm,Calm,-,N/A,,Overcast,0,2013-12-05 09:09:00
4:31 AM,57.2,55.4,94,30.06,3.0,South,4.6,-,N/A,,Overcast,170,2013-12-05 09:31:00
4:41 AM,57.2,55.4,94,30.06,4.0,Calm,Calm,-,N/A,,Overcast,0,2013-12-05 09:41:00
4:54 AM,57.0,55.9,96,30.03,3.0,Calm,Calm,-,N/A,,Overcast,0,2013-12-05 09:54:00
5:54 AM,57.9,57.0,97,30.03,9.0,SE,3.5,-,N/A,,Overcast,130,2013-12-05 10:54:00
6:54 AM,59.0,57.0,93,30.05,10.0,SSE,5.8,-,N/A,,Overcast,150,2013-12-05 11:54:00
7:54 AM,59.0,57.0,93,30.07,10.0,SSE,4.6,-,N/A,,Overcast,150,2013-12-05 12:54:00
8:23 AM,59.0,57.2,94,30.11,10.0,SE,4.6,-,N/A,,Scattered Clouds,140,2013-12-05 13:23:00
8:30 AM,59.0,57.2,94,30.11,10.0,SSE,5.8,-,N/A,,Mostly Cloudy,150,2013-12-05 13:30:00
8:54 AM,59.0,57.0,93,30.07,10.0,SSE,4.6,-,N/A,,Mostly Cloudy,160,2013-12-05 13:54:00
9:21 AM,60.8,57.2,88,30.11,10.0,Calm,Calm,-,N/A,,Partly Cloudy,0,2013-12-05 14:21:00
9:54 AM,61.0,57.0,87,30.08,10.0,ESE,3.5,-,N/A,,Clear,110,2013-12-05 14:54:00
10:54 AM,63.0,57.9,84,30.06,10.0,SSE,6.9,-,N/A,,Clear,150,2013-12-05 15:54:00
11:54 AM,66.9,61.0,81,30.04,10.0,South,11.5,-,N/A,,Scattered Clouds,180,2013-12-05 16:54:00
12:12 PM,66.2,60.8,83,30.08,10.0,SSW,10.4,-,N/A,,Mostly Cloudy,200,2013-12-05 17:12:00
12:35 PM,68.0,60.8,78,30.08,10.0,South,10.4,-,N/A,,Scattered Clouds,180,2013-12-05 17:35:00
12:54 PM,68.0,59.0,73,30.02,10.0,South,12.7,-,N/A,,Scattered Clouds,190,2013-12-05 17:54:00
1:54 PM,68.0,59.0,73,29.99,10.0,South,11.5,19.6,N/A,,Mostly Cloudy,180,2013-12-05 18:54:00
2:54 PM,66.9,59.0,76,29.99,10.0,SSW,12.7,-,N/A,,Overcast,200,2013-12-05 19:54:00
3:54 PM,66.0,59.0,78,29.99,10.0,SSW,13.8,21.9,N/A,,Overcast,200,2013-12-05 20:54:00
4:54 PM,64.0,59.0,84,30.00,10.0,SSW,5.8,-,N/A,,Scattered Clouds,200,2013-12-05 21:54:00
5:54 PM,62.1,61.0,96,30.02,3.0,SSE,5.8,-,0.02,Rain,Light Rain,150,2013-12-05 22:54:00
6:10 PM,60.8,60.8,100,30.04,8.0,SE,3.5,-,0.01,,Overcast,130,2013-12-05 23:10:00
6:24 PM,62.6,60.8,94,30.06,10.0,SE,4.6,-,0.01,,Overcast,140,2013-12-05 23:24:00
6:54 PM,62.1,61.0,96,30.01,10.0,SSE,4.6,-,0.01,,Overcast,160,2013-12-05 23:54:00
7:05 PM,62.6,60.8,94,30.05,5.0,SE,4.6,-,0.01,Rain,Light Rain,130,2013-12-06 00:05:00
7:18 PM,62.6,60.8,94,30.05,7.0,SE,4.6,-,0.02,Rain,Light Rain,140,2013-12-06 00:18:00
7:54 PM,62.1,61.0,96,30.01,5.0,Calm,Calm,-,0.06,Rain,Rain,0,2013-12-06 00:54:00
8:09 PM,62.6,60.8,94,30.05,3.0,SSE,4.6,-,0.04,Rain,Heavy Rain,150,2013-12-06 01:09:00
8:54 PM,63.0,62.1,97,29.99,8.0,Calm,Calm,-,0.12,Rain,Light Rain,0,2013-12-06 01:54:00
9:50 PM,62.6,62.6,100,30.04,7.0,South,3.5,-,0.02,Rain,Light Rain,170,2013-12-06 02:50:00
9:54 PM,62.1,62.1,100,29.99,5.0,SSE,3.5,-,0.03,Rain,Light Rain,160,2013-12-06 02:54:00
10:11 PM,62.6,60.8,94,30.04,4.0,SW,3.5,-,0.03,Rain,Light Rain,230,2013-12-06 03:11:00
10:18 PM,62.6,62.6,100,30.04,3.0,Calm,Calm,-,0.04,Rain,Rain,0,2013-12-06 03:18:00
10:41 PM,62.6,62.6,100,30.03,8.0,SE,3.5,-,0.10,Rain,Light Rain,130,2013-12-06 03:41:00
10:54 PM,63.0,62.1,97,29.99,10.0,SE,4.6,-,0.10,Rain,Light Rain,140,2013-12-06 03:54:00
11:28 PM,62.6,62.6,100,30.03,7.0,South,6.9,-,0.02,Rain,Light Rain,180,2013-12-06 04:28:00
11:39 PM,64.4,62.6,94,30.03,10.0,South,5.8,-,0.02,,Overcast,180,2013-12-06 04:39:00
11:54 PM,63.0,62.1,97,29.99,7.0,SSW,4.6,-,0.02,Rain,Light Rain,200,2013-12-06 04:54:00